sensor_id;sensor_type;location;lat;lon;timestamp;P1;durP1;ratioP1;P2;durP2;ratioP2
4674;SDS011;2351;50.812;12.872;2023-06-22T00:01:26;19.40;;;13.27;;
4674;SDS011;2351;50.812;12.872;2023-06-22T00:03:59;36.13;;;14.90;;
4674;SDS011;2351;50.812;12.872;2023-06-22T00:06:31;17.57;;;14.13;;
4674;SDS011;2351;50.812;12.872;2023-06-22T00:09:02;32.50;;;15.43;;
4674;SDS011;2351;50.812;12.872;2023-06-22T00:11:34;27.50;;;15.43;;
4674;SDS011;2351;50.812;12.872;2023-06-22T00:14:06;25.40;;;15.30;;
4674;SDS011;2351;50.812;12.872;2023-06-22T00:16:38;23.13;;;16.20;;
4674;SDS011;2351;50.812;12.872;2023-06-22T00:19:11;22.27;;;13.43;;
4674;SDS011;2351;50.812;12.872;2023-06-22T00:21:43;23.90;;;15.03;;
4674;SDS011;2351;50.812;12.872;2023-06-22T00:24:17;20.47;;;14.47;;
4674;SDS011;2351;50.812;12.872;2023-06-22T00:26:48;16.80;;;13.67;;
4674;SDS011;2351;50.812;12.872;2023-06-22T00:29:20;19.50;;;13.43;;
4674;SDS011;2351;50.812;12.872;2023-06-22T00:31:52;19.20;;;12.60;;
4674;SDS011;2351;50.812;12.872;2023-06-22T00:34:25;24.53;;;13.93;;
4674;SDS011;2351;50.812;12.872;2023-06-22T00:36:56;25.07;;;14.37;;
4674;SDS011;2351;50.812;12.872;2023-06-22T00:39:29;18.23;;;13.57;;
4674;SDS011;2351;50.812;12.872;2023-06-22T00:42:04;15.80;;;12.70;;
4674;SDS011;2351;50.812;12.872;2023-06-22T00:44:36;20.23;;;13.00;;
4674;SDS011;2351;50.812;12.872;2023-06-22T00:47:07;22.27;;;12.50;;
4674;SDS011;2351;50.812;12.872;2023-06-22T00:49:40;20.93;;;13.83;;
4674;SDS011;2351;50.812;12.872;2023-06-22T00:52:12;18.60;;;13.27;;
4674;SDS011;2351;50.812;12.872;2023-06-22T00:54:51;20.07;;;14.23;;
4674;SDS011;2351;50.812;12.872;2023-06-22T00:57:23;21.97;;;13.00;;
4674;SDS011;2351;50.812;12.872;2023-06-22T00:59:58;17.73;;;12.70;;
4674;SDS011;2351;50.812;12.872;2023-06-22T01:02:29;18.70;;;12.13;;
4674;SDS011;2351;50.812;12.872;2023-06-22T01:05:03;15.10;;;11.30;;
4674;SDS011;2351;50.812;12.872;2023-06-22T01:07:35;15.80;;;13.50;;
4674;SDS011;2351;50.812;12.872;2023-06-22T01:10:21;19.23;;;13.77;;
4674;SDS011;2351;50.812;12.872;2023-06-22T01:13:02;17.03;;;13.50;;
4674;SDS011;2351;50.812;12.872;2023-06-22T01:15:39;21.50;;;12.47;;
4674;SDS011;2351;50.812;12.872;2023-06-22T01:18:17;17.50;;;12.43;;
4674;SDS011;2351;50.812;12.872;2023-06-22T01:20:51;17.73;;;12.20;;
4674;SDS011;2351;50.812;12.872;2023-06-22T01:23:27;20.33;;;13.00;;
4674;SDS011;2351;50.812;12.872;2023-06-22T01:26:18;16.20;;;12.27;;
4674;SDS011;2351;50.812;12.872;2023-06-22T01:28:53;19.47;;;12.80;;
4674;SDS011;2351;50.812;12.872;2023-06-22T01:31:27;16.50;;;12.03;;
4674;SDS011;2351;50.812;12.872;2023-06-22T01:34:02;22.07;;;13.40;;
4674;SDS011;2351;50.812;12.872;2023-06-22T01:36:36;17.67;;;12.97;;
4674;SDS011;2351;50.812;12.872;2023-06-22T01:39:10;18.93;;;13.10;;
4674;SDS011;2351;50.812;12.872;2023-06-22T01:41:42;15.30;;;12.07;;
4674;SDS011;2351;50.812;12.872;2023-06-22T01:44:16;19.20;;;13.60;;
4674;SDS011;2351;50.812;12.872;2023-06-22T01:46:49;18.93;;;12.90;;
4674;SDS011;2351;50.812;12.872;2023-06-22T01:49:22;21.20;;;13.97;;
4674;SDS011;2351;50.812;12.872;2023-06-22T01:51:54;24.10;;;12.70;;
4674;SDS011;2351;50.812;12.872;2023-06-22T01:54:25;20.20;;;11.27;;
4674;SDS011;2351;50.812;12.872;2023-06-22T01:56:57;19.33;;;13.27;;
4674;SDS011;2351;50.812;12.872;2023-06-22T01:59:32;19.80;;;12.43;;
4674;SDS011;2351;50.812;12.872;2023-06-22T02:02:08;19.97;;;12.30;;
4674;SDS011;2351;50.812;12.872;2023-06-22T02:04:42;15.90;;;11.70;;
4674;SDS011;2351;50.812;12.872;2023-06-22T02:07:17;22.40;;;12.33;;
4674;SDS011;2351;50.812;12.872;2023-06-22T02:09:52;17.40;;;13.50;;
4674;SDS011;2351;50.812;12.872;2023-06-22T02:12:26;20.10;;;13.20;;
4674;SDS011;2351;50.812;12.872;2023-06-22T02:15:00;23.60;;;13.87;;
4674;SDS011;2351;50.812;12.872;2023-06-22T02:17:33;18.50;;;13.00;;
4674;SDS011;2351;50.812;12.872;2023-06-22T02:20:05;17.67;;;13.27;;
4674;SDS011;2351;50.812;12.872;2023-06-22T02:22:43;16.13;;;11.83;;
4674;SDS011;2351;50.812;12.872;2023-06-22T02:25:15;30.50;;;14.60;;
4674;SDS011;2351;50.812;12.872;2023-06-22T02:27:46;17.63;;;13.00;;
4674;SDS011;2351;50.812;12.872;2023-06-22T02:30:20;24.97;;;14.03;;
4674;SDS011;2351;50.812;12.872;2023-06-22T02:32:51;17.27;;;13.20;;
4674;SDS011;2351;50.812;12.872;2023-06-22T02:35:28;18.57;;;13.37;;
4674;SDS011;2351;50.812;12.872;2023-06-22T02:38:02;18.23;;;13.20;;
4674;SDS011;2351;50.812;12.872;2023-06-22T02:40:35;20.03;;;13.57;;
4674;SDS011;2351;50.812;12.872;2023-06-22T02:43:06;21.23;;;14.50;;
4674;SDS011;2351;50.812;12.872;2023-06-22T02:45:39;30.17;;;15.07;;
4674;SDS011;2351;50.812;12.872;2023-06-22T02:48:11;21.80;;;14.20;;
4674;SDS011;2351;50.812;12.872;2023-06-22T02:50:43;18.73;;;13.40;;
4674;SDS011;2351;50.812;12.872;2023-06-22T02:53:15;25.50;;;13.67;;
4674;SDS011;2351;50.812;12.872;2023-06-22T02:55:46;16.63;;;13.20;;
4674;SDS011;2351;50.812;12.872;2023-06-22T02:58:18;18.13;;;12.17;;
4674;SDS011;2351;50.812;12.872;2023-06-22T03:00:51;15.97;;;11.57;;
4674;SDS011;2351;50.812;12.872;2023-06-22T03:03:23;20.03;;;13.20;;
4674;SDS011;2351;50.812;12.872;2023-06-22T03:05:56;24.27;;;14.80;;
4674;SDS011;2351;50.812;12.872;2023-06-22T03:08:28;18.33;;;13.43;;
4674;SDS011;2351;50.812;12.872;2023-06-22T03:11:00;21.37;;;14.80;;
4674;SDS011;2351;50.812;12.872;2023-06-22T03:13:31;27.07;;;14.07;;
4674;SDS011;2351;50.812;12.872;2023-06-22T03:16:05;20.43;;;13.60;;
4674;SDS011;2351;50.812;12.872;2023-06-22T03:18:36;27.47;;;14.03;;
4674;SDS011;2351;50.812;12.872;2023-06-22T03:21:08;18.50;;;14.00;;
4674;SDS011;2351;50.812;12.872;2023-06-22T03:23:40;17.83;;;12.87;;
4674;SDS011;2351;50.812;12.872;2023-06-22T03:26:11;17.90;;;13.10;;
4674;SDS011;2351;50.812;12.872;2023-06-22T03:28:43;25.50;;;14.20;;
4674;SDS011;2351;50.812;12.872;2023-06-22T03:31:16;27.20;;;13.80;;
4674;SDS011;2351;50.812;12.872;2023-06-22T03:33:51;16.60;;;12.63;;
4674;SDS011;2351;50.812;12.872;2023-06-22T03:36:23;19.30;;;13.60;;
4674;SDS011;2351;50.812;12.872;2023-06-22T03:38:55;29.40;;;15.03;;
4674;SDS011;2351;50.812;12.872;2023-06-22T03:41:27;20.20;;;14.83;;
4674;SDS011;2351;50.812;12.872;2023-06-22T03:43:58;20.63;;;13.77;;
4674;SDS011;2351;50.812;12.872;2023-06-22T03:46:31;19.03;;;13.47;;
4674;SDS011;2351;50.812;12.872;2023-06-22T03:49:03;19.77;;;14.10;;
4674;SDS011;2351;50.812;12.872;2023-06-22T03:51:35;22.10;;;13.47;;
4674;SDS011;2351;50.812;12.872;2023-06-22T03:54:07;16.27;;;12.30;;
4674;SDS011;2351;50.812;12.872;2023-06-22T03:56:38;32.33;;;14.67;;
4674;SDS011;2351;50.812;12.872;2023-06-22T03:59:10;25.43;;;12.90;;
4674;SDS011;2351;50.812;12.872;2023-06-22T04:01:43;25.70;;;14.10;;
4674;SDS011;2351;50.812;12.872;2023-06-22T04:04:15;25.93;;;13.90;;
4674;SDS011;2351;50.812;12.872;2023-06-22T04:06:47;25.00;;;14.90;;
4674;SDS011;2351;50.812;12.872;2023-06-22T04:09:19;19.60;;;14.23;;
4674;SDS011;2351;50.812;12.872;2023-06-22T04:11:51;20.83;;;14.80;;
4674;SDS011;2351;50.812;12.872;2023-06-22T04:14:23;22.00;;;15.30;;
4674;SDS011;2351;50.812;12.872;2023-06-22T04:16:57;31.70;;;15.77;;
4674;SDS011;2351;50.812;12.872;2023-06-22T04:19:29;31.13;;;15.37;;
4674;SDS011;2351;50.812;12.872;2023-06-22T04:22:01;24.13;;;17.00;;
4674;SDS011;2351;50.812;12.872;2023-06-22T04:24:33;26.40;;;16.47;;
4674;SDS011;2351;50.812;12.872;2023-06-22T04:27:05;22.40;;;15.60;;
4674;SDS011;2351;50.812;12.872;2023-06-22T04:29:37;20.70;;;15.00;;
4674;SDS011;2351;50.812;12.872;2023-06-22T04:32:20;23.77;;;15.73;;
4674;SDS011;2351;50.812;12.872;2023-06-22T04:34:52;24.63;;;14.70;;
4674;SDS011;2351;50.812;12.872;2023-06-22T04:37:23;23.43;;;14.50;;
4674;SDS011;2351;50.812;12.872;2023-06-22T04:39:55;25.30;;;15.83;;
4674;SDS011;2351;50.812;12.872;2023-06-22T04:42:27;22.67;;;15.60;;
4674;SDS011;2351;50.812;12.872;2023-06-22T04:44:59;20.27;;;15.90;;
4674;SDS011;2351;50.812;12.872;2023-06-22T04:47:32;25.10;;;15.83;;
4674;SDS011;2351;50.812;12.872;2023-06-22T04:50:04;29.23;;;16.67;;
4674;SDS011;2351;50.812;12.872;2023-06-22T04:52:36;25.63;;;16.23;;
4674;SDS011;2351;50.812;12.872;2023-06-22T04:55:08;24.77;;;14.67;;
4674;SDS011;2351;50.812;12.872;2023-06-22T04:57:40;23.53;;;16.07;;
4674;SDS011;2351;50.812;12.872;2023-06-22T05:00:18;20.93;;;15.93;;
4674;SDS011;2351;50.812;12.872;2023-06-22T05:02:54;25.30;;;16.33;;
4674;SDS011;2351;50.812;12.872;2023-06-22T05:05:28;28.10;;;17.03;;
4674;SDS011;2351;50.812;12.872;2023-06-22T05:08:01;33.60;;;17.40;;
4674;SDS011;2351;50.812;12.872;2023-06-22T05:10:33;34.33;;;16.50;;
4674;SDS011;2351;50.812;12.872;2023-06-22T05:13:05;23.90;;;17.37;;
4674;SDS011;2351;50.812;12.872;2023-06-22T05:15:37;19.10;;;14.93;;
4674;SDS011;2351;50.812;12.872;2023-06-22T05:18:11;20.90;;;16.10;;
4674;SDS011;2351;50.812;12.872;2023-06-22T05:20:44;21.37;;;14.83;;
4674;SDS011;2351;50.812;12.872;2023-06-22T05:23:16;22.80;;;15.37;;
4674;SDS011;2351;50.812;12.872;2023-06-22T05:25:48;23.37;;;14.60;;
4674;SDS011;2351;50.812;12.872;2023-06-22T05:28:21;23.53;;;15.50;;
4674;SDS011;2351;50.812;12.872;2023-06-22T05:30:53;22.07;;;15.80;;
4674;SDS011;2351;50.812;12.872;2023-06-22T05:33:26;26.03;;;13.70;;
4674;SDS011;2351;50.812;12.872;2023-06-22T05:35:58;24.13;;;12.23;;
4674;SDS011;2351;50.812;12.872;2023-06-22T05:38:30;19.27;;;13.10;;
4674;SDS011;2351;50.812;12.872;2023-06-22T05:41:01;17.30;;;12.63;;
4674;SDS011;2351;50.812;12.872;2023-06-22T05:43:33;17.50;;;12.27;;
4674;SDS011;2351;50.812;12.872;2023-06-22T05:46:05;18.73;;;13.47;;
4674;SDS011;2351;50.812;12.872;2023-06-22T05:48:38;25.27;;;14.17;;
4674;SDS011;2351;50.812;12.872;2023-06-22T05:51:10;18.43;;;13.07;;
4674;SDS011;2351;50.812;12.872;2023-06-22T05:53:42;23.23;;;11.17;;
4674;SDS011;2351;50.812;12.872;2023-06-22T05:56:14;18.13;;;11.40;;
4674;SDS011;2351;50.812;12.872;2023-06-22T05:58:46;22.33;;;10.63;;
4674;SDS011;2351;50.812;12.872;2023-06-22T06:01:18;13.13;;;10.20;;
4674;SDS011;2351;50.812;12.872;2023-06-22T06:03:51;14.40;;;10.00;;
4674;SDS011;2351;50.812;12.872;2023-06-22T06:06:23;21.33;;;10.27;;
4674;SDS011;2351;50.812;12.872;2023-06-22T06:08:58;12.10;;;10.53;;
4674;SDS011;2351;50.812;12.872;2023-06-22T06:11:30;18.47;;;10.60;;
4674;SDS011;2351;50.812;12.872;2023-06-22T06:14:02;13.13;;;9.10;;
4674;SDS011;2351;50.812;12.872;2023-06-22T06:16:34;11.30;;;9.67;;
4674;SDS011;2351;50.812;12.872;2023-06-22T06:19:07;11.57;;;9.37;;
4674;SDS011;2351;50.812;12.872;2023-06-22T06:21:39;13.40;;;9.37;;
4674;SDS011;2351;50.812;12.872;2023-06-22T06:24:13;15.10;;;9.17;;
4674;SDS011;2351;50.812;12.872;2023-06-22T06:26:45;10.20;;;9.10;;
4674;SDS011;2351;50.812;12.872;2023-06-22T06:29:17;11.70;;;10.00;;
4674;SDS011;2351;50.812;12.872;2023-06-22T06:31:49;14.63;;;9.57;;
4674;SDS011;2351;50.812;12.872;2023-06-22T06:34:22;11.40;;;10.20;;
4674;SDS011;2351;50.812;12.872;2023-06-22T06:36:54;13.30;;;9.23;;
4674;SDS011;2351;50.812;12.872;2023-06-22T06:39:25;17.40;;;10.17;;
4674;SDS011;2351;50.812;12.872;2023-06-22T06:41:57;11.77;;;9.20;;
4674;SDS011;2351;50.812;12.872;2023-06-22T06:44:29;16.97;;;10.10;;
4674;SDS011;2351;50.812;12.872;2023-06-22T06:47:00;15.33;;;9.17;;
4674;SDS011;2351;50.812;12.872;2023-06-22T06:49:34;16.47;;;10.10;;
4674;SDS011;2351;50.812;12.872;2023-06-22T06:52:06;14.43;;;9.47;;
4674;SDS011;2351;50.812;12.872;2023-06-22T06:54:38;12.37;;;8.10;;
4674;SDS011;2351;50.812;12.872;2023-06-22T06:57:12;10.33;;;9.20;;
4674;SDS011;2351;50.812;12.872;2023-06-22T06:59:45;11.30;;;9.50;;
4674;SDS011;2351;50.812;12.872;2023-06-22T07:02:17;12.80;;;9.53;;
4674;SDS011;2351;50.812;12.872;2023-06-22T07:04:50;11.57;;;8.57;;
4674;SDS011;2351;50.812;12.872;2023-06-22T07:07:22;10.50;;;8.50;;
4674;SDS011;2351;50.812;12.872;2023-06-22T07:09:54;11.47;;;8.77;;
4674;SDS011;2351;50.812;12.872;2023-06-22T07:12:25;10.93;;;9.93;;
4674;SDS011;2351;50.812;12.872;2023-06-22T07:15:00;10.20;;;9.20;;
4674;SDS011;2351;50.812;12.872;2023-06-22T07:17:33;9.90;;;8.90;;
4674;SDS011;2351;50.812;12.872;2023-06-22T07:20:07;12.40;;;8.13;;
4674;SDS011;2351;50.812;12.872;2023-06-22T07:22:40;12.70;;;8.37;;
4674;SDS011;2351;50.812;12.872;2023-06-22T07:25:15;12.50;;;9.60;;
4674;SDS011;2351;50.812;12.872;2023-06-22T07:27:56;10.93;;;8.77;;
4674;SDS011;2351;50.812;12.872;2023-06-22T07:30:29;8.77;;;7.87;;
4674;SDS011;2351;50.812;12.872;2023-06-22T07:33:02;11.07;;;8.77;;
4674;SDS011;2351;50.812;12.872;2023-06-22T07:35:37;9.70;;;8.70;;
4674;SDS011;2351;50.812;12.872;2023-06-22T07:38:09;12.50;;;8.57;;
4674;SDS011;2351;50.812;12.872;2023-06-22T07:40:41;10.77;;;8.60;;
4674;SDS011;2351;50.812;12.872;2023-06-22T07:43:13;11.70;;;8.80;;
4674;SDS011;2351;50.812;12.872;2023-06-22T07:45:47;8.67;;;7.87;;
4674;SDS011;2351;50.812;12.872;2023-06-22T07:48:22;15.20;;;8.50;;
4674;SDS011;2351;50.812;12.872;2023-06-22T07:50:55;8.90;;;8.00;;
4674;SDS011;2351;50.812;12.872;2023-06-22T07:53:27;12.20;;;8.87;;
4674;SDS011;2351;50.812;12.872;2023-06-22T07:55:59;12.03;;;8.90;;
4674;SDS011;2351;50.812;12.872;2023-06-22T07:58:30;13.13;;;9.00;;
4674;SDS011;2351;50.812;12.872;2023-06-22T08:01:02;9.47;;;7.67;;
4674;SDS011;2351;50.812;12.872;2023-06-22T08:03:34;9.37;;;8.23;;
4674;SDS011;2351;50.812;12.872;2023-06-22T08:06:07;9.13;;;8.23;;
4674;SDS011;2351;50.812;12.872;2023-06-22T08:08:40;11.67;;;8.03;;
4674;SDS011;2351;50.812;12.872;2023-06-22T08:11:12;10.90;;;7.97;;
4674;SDS011;2351;50.812;12.872;2023-06-22T08:13:44;9.17;;;7.70;;
4674;SDS011;2351;50.812;12.872;2023-06-22T08:16:16;9.43;;;8.20;;
4674;SDS011;2351;50.812;12.872;2023-06-22T08:18:48;8.63;;;7.83;;
4674;SDS011;2351;50.812;12.872;2023-06-22T08:21:21;9.70;;;8.03;;
4674;SDS011;2351;50.812;12.872;2023-06-22T08:23:52;15.70;;;8.33;;
4674;SDS011;2351;50.812;12.872;2023-06-22T08:26:24;8.80;;;7.90;;
4674;SDS011;2351;50.812;12.872;2023-06-22T08:28:56;8.50;;;7.60;;
4674;SDS011;2351;50.812;12.872;2023-06-22T08:31:28;8.30;;;7.50;;
4674;SDS011;2351;50.812;12.872;2023-06-22T08:33:59;11.10;;;7.30;;
4674;SDS011;2351;50.812;12.872;2023-06-22T08:36:33;8.13;;;7.33;;
4674;SDS011;2351;50.812;12.872;2023-06-22T08:39:14;8.83;;;7.97;;
4674;SDS011;2351;50.812;12.872;2023-06-22T08:41:46;8.30;;;7.50;;
4674;SDS011;2351;50.812;12.872;2023-06-22T08:44:19;15.43;;;7.90;;
4674;SDS011;2351;50.812;12.872;2023-06-22T08:46:50;9.90;;;7.90;;
4674;SDS011;2351;50.812;12.872;2023-06-22T08:49:22;9.07;;;8.20;;
4674;SDS011;2351;50.812;12.872;2023-06-22T08:51:55;8.70;;;7.80;;
4674;SDS011;2351;50.812;12.872;2023-06-22T08:54:27;9.97;;;7.90;;
4674;SDS011;2351;50.812;12.872;2023-06-22T08:56:59;8.60;;;7.40;;
4674;SDS011;2351;50.812;12.872;2023-06-22T08:59:30;11.07;;;7.90;;
4674;SDS011;2351;50.812;12.872;2023-06-22T09:02:02;9.43;;;8.53;;
4674;SDS011;2351;50.812;12.872;2023-06-22T09:04:34;11.13;;;7.07;;
4674;SDS011;2351;50.812;12.872;2023-06-22T09:07:07;8.13;;;7.30;;
4674;SDS011;2351;50.812;12.872;2023-06-22T09:09:39;11.10;;;7.90;;
4674;SDS011;2351;50.812;12.872;2023-06-22T09:12:11;7.87;;;6.90;;
4674;SDS011;2351;50.812;12.872;2023-06-22T09:14:43;7.67;;;6.97;;
4674;SDS011;2351;50.812;12.872;2023-06-22T09:17:14;9.53;;;7.20;;
4674;SDS011;2351;50.812;12.872;2023-06-22T09:19:46;8.17;;;7.37;;
4674;SDS011;2351;50.812;12.872;2023-06-22T09:22:20;9.20;;;6.43;;
4674;SDS011;2351;50.812;12.872;2023-06-22T09:24:52;11.17;;;7.50;;
4674;SDS011;2351;50.812;12.872;2023-06-22T09:27:25;7.97;;;7.17;;
4674;SDS011;2351;50.812;12.872;2023-06-22T09:29:57;9.13;;;7.33;;
4674;SDS011;2351;50.812;12.872;2023-06-22T09:32:29;10.60;;;7.30;;
4674;SDS011;2351;50.812;12.872;2023-06-22T09:35:01;10.67;;;7.70;;
4674;SDS011;2351;50.812;12.872;2023-06-22T09:37:37;8.70;;;7.83;;
4674;SDS011;2351;50.812;12.872;2023-06-22T09:40:09;10.30;;;8.27;;
4674;SDS011;2351;50.812;12.872;2023-06-22T09:42:41;8.40;;;7.50;;
4674;SDS011;2351;50.812;12.872;2023-06-22T09:45:13;10.87;;;7.50;;
4674;SDS011;2351;50.812;12.872;2023-06-22T09:48:07;9.47;;;7.17;;
4674;SDS011;2351;50.812;12.872;2023-06-22T09:51:58;8.10;;;7.33;;
4674;SDS011;2351;50.812;12.872;2023-06-22T10:02:30;10.80;;;7.30;;
4674;SDS011;2351;50.812;12.872;2023-06-22T10:05:02;13.90;;;8.00;;
4674;SDS011;2351;50.812;12.872;2023-06-22T10:07:34;12.07;;;8.30;;
4674;SDS011;2351;50.812;12.872;2023-06-22T10:10:10;10.93;;;8.00;;
4674;SDS011;2351;50.812;12.872;2023-06-22T10:12:43;10.27;;;8.30;;
4674;SDS011;2351;50.812;12.872;2023-06-22T10:15:17;12.87;;;8.40;;
4674;SDS011;2351;50.812;12.872;2023-06-22T10:17:50;11.10;;;8.90;;
4674;SDS011;2351;50.812;12.872;2023-06-22T10:20:23;20.57;;;9.73;;
4674;SDS011;2351;50.812;12.872;2023-06-22T10:22:56;9.27;;;8.47;;
4674;SDS011;2351;50.812;12.872;2023-06-22T10:25:28;9.70;;;8.43;;
4674;SDS011;2351;50.812;12.872;2023-06-22T10:28:00;12.53;;;9.03;;
4674;SDS011;2351;50.812;12.872;2023-06-22T10:30:32;13.43;;;9.23;;
4674;SDS011;2351;50.812;12.872;2023-06-22T10:33:05;10.00;;;8.43;;
4674;SDS011;2351;50.812;12.872;2023-06-22T10:35:37;12.63;;;8.60;;
4674;SDS011;2351;50.812;12.872;2023-06-22T10:38:09;12.17;;;9.20;;
4674;SDS011;2351;50.812;12.872;2023-06-22T10:40:41;10.67;;;9.20;;
4674;SDS011;2351;50.812;12.872;2023-06-22T10:43:13;13.50;;;9.70;;
4674;SDS011;2351;50.812;12.872;2023-06-22T10:45:44;10.43;;;9.30;;
4674;SDS011;2351;50.812;12.872;2023-06-22T10:48:18;9.03;;;8.20;;
4674;SDS011;2351;50.812;12.872;2023-06-22T10:50:50;15.67;;;8.70;;
4674;SDS011;2351;50.812;12.872;2023-06-22T10:53:23;12.43;;;9.30;;
4674;SDS011;2351;50.812;12.872;2023-06-22T10:55:55;14.53;;;9.90;;
4674;SDS011;2351;50.812;12.872;2023-06-22T10:58:27;16.73;;;9.13;;
4674;SDS011;2351;50.812;12.872;2023-06-22T11:00:59;15.70;;;9.07;;
4674;SDS011;2351;50.812;12.872;2023-06-22T11:03:32;12.17;;;9.67;;
4674;SDS011;2351;50.812;12.872;2023-06-22T11:06:04;10.10;;;8.80;;
4674;SDS011;2351;50.812;12.872;2023-06-22T11:08:36;12.63;;;8.50;;
4674;SDS011;2351;50.812;12.872;2023-06-22T11:11:08;10.30;;;8.40;;
4674;SDS011;2351;50.812;12.872;2023-06-22T11:13:39;27.23;;;7.70;;
4674;SDS011;2351;50.812;12.872;2023-06-22T11:16:11;10.67;;;8.40;;
4674;SDS011;2351;50.812;12.872;2023-06-22T11:18:44;10.80;;;8.63;;
4674;SDS011;2351;50.812;12.872;2023-06-22T11:21:16;8.97;;;7.40;;
4674;SDS011;2351;50.812;12.872;2023-06-22T11:23:48;16.73;;;8.20;;
4674;SDS011;2351;50.812;12.872;2023-06-22T11:26:20;8.80;;;7.47;;
4674;SDS011;2351;50.812;12.872;2023-06-22T11:28:52;9.67;;;7.97;;
4674;SDS011;2351;50.812;12.872;2023-06-22T11:31:24;8.60;;;7.70;;
4674;SDS011;2351;50.812;12.872;2023-06-22T11:33:59;13.77;;;7.80;;
4674;SDS011;2351;50.812;12.872;2023-06-22T11:39:28;8.90;;;7.30;;
4674;SDS011;2351;50.812;12.872;2023-06-22T11:42:02;9.70;;;8.70;;
4674;SDS011;2351;50.812;12.872;2023-06-22T11:44:34;10.23;;;7.37;;
4674;SDS011;2351;50.812;12.872;2023-06-22T11:47:09;11.57;;;8.10;;
4674;SDS011;2351;50.812;12.872;2023-06-22T11:49:43;9.40;;;7.63;;
4674;SDS011;2351;50.812;12.872;2023-06-22T11:52:14;8.83;;;7.30;;
4674;SDS011;2351;50.812;12.872;2023-06-22T11:54:47;8.37;;;6.43;;
4674;SDS011;2351;50.812;12.872;2023-06-22T11:57:19;12.57;;;8.47;;
4674;SDS011;2351;50.812;12.872;2023-06-22T11:59:51;8.73;;;7.83;;
4674;SDS011;2351;50.812;12.872;2023-06-22T12:02:23;10.00;;;6.97;;
4674;SDS011;2351;50.812;12.872;2023-06-22T12:04:57;9.33;;;7.13;;
4674;SDS011;2351;50.812;12.872;2023-06-22T12:07:29;13.63;;;7.23;;
4674;SDS011;2351;50.812;12.872;2023-06-22T12:10:01;11.17;;;8.93;;
4674;SDS011;2351;50.812;12.872;2023-06-22T12:12:35;7.40;;;6.70;;
4674;SDS011;2351;50.812;12.872;2023-06-22T12:15:07;9.83;;;7.00;;
4674;SDS011;2351;50.812;12.872;2023-06-22T12:17:40;8.27;;;7.47;;
4674;SDS011;2351;50.812;12.872;2023-06-22T12:20:14;8.37;;;7.10;;
4674;SDS011;2351;50.812;12.872;2023-06-22T12:22:47;10.20;;;6.87;;
4674;SDS011;2351;50.812;12.872;2023-06-22T12:25:22;10.93;;;8.10;;
4674;SDS011;2351;50.812;12.872;2023-06-22T12:27:56;9.27;;;7.70;;
4674;SDS011;2351;50.812;12.872;2023-06-22T12:30:34;13.17;;;7.00;;
4674;SDS011;2351;50.812;12.872;2023-06-22T12:36:47;8.40;;;6.50;;
4674;SDS011;2351;50.812;12.872;2023-06-22T12:39:33;10.97;;;7.70;;
4674;SDS011;2351;50.812;12.872;2023-06-22T12:42:14;8.80;;;7.33;;
4674;SDS011;2351;50.812;12.872;2023-06-22T12:44:51;10.70;;;6.93;;
4674;SDS011;2351;50.812;12.872;2023-06-22T12:51:11;9.17;;;7.13;;
4674;SDS011;2351;50.812;12.872;2023-06-22T13:01:24;10.90;;;7.83;;
4674;SDS011;2351;50.812;12.872;2023-06-22T13:03:57;10.43;;;8.20;;
4674;SDS011;2351;50.812;12.872;2023-06-22T13:06:31;8.50;;;7.70;;
4674;SDS011;2351;50.812;12.872;2023-06-22T13:09:10;8.73;;;7.93;;
4674;SDS011;2351;50.812;12.872;2023-06-22T13:11:47;8.57;;;7.77;;
4674;SDS011;2351;50.812;12.872;2023-06-22T13:56:13;10.30;;;7.60;;
4674;SDS011;2351;50.812;12.872;2023-06-22T13:58:45;14.63;;;8.33;;
4674;SDS011;2351;50.812;12.872;2023-06-22T14:01:17;8.30;;;7.43;;
4674;SDS011;2351;50.812;12.872;2023-06-22T14:03:49;8.87;;;7.73;;
4674;SDS011;2351;50.812;12.872;2023-06-22T14:06:21;11.23;;;7.40;;
4674;SDS011;2351;50.812;12.872;2023-06-22T14:08:53;9.03;;;8.07;;
4674;SDS011;2351;50.812;12.872;2023-06-22T14:11:27;9.30;;;8.00;;
4674;SDS011;2351;50.812;12.872;2023-06-22T14:13:59;19.93;;;8.30;;
4674;SDS011;2351;50.812;12.872;2023-06-22T14:16:31;16.77;;;8.70;;
4674;SDS011;2351;50.812;12.872;2023-06-22T14:19:03;11.87;;;8.23;;
4674;SDS011;2351;50.812;12.872;2023-06-22T14:21:35;13.03;;;8.40;;
4674;SDS011;2351;50.812;12.872;2023-06-22T14:24:07;18.70;;;8.40;;
4674;SDS011;2351;50.812;12.872;2023-06-22T14:26:48;9.30;;;7.33;;
4674;SDS011;2351;50.812;12.872;2023-06-22T14:29:20;21.37;;;8.47;;
4674;SDS011;2351;50.812;12.872;2023-06-22T14:31:54;8.57;;;7.70;;
4674;SDS011;2351;50.812;12.872;2023-06-22T14:34:26;9.03;;;7.80;;
4674;SDS011;2351;50.812;12.872;2023-06-22T14:36:57;9.70;;;7.87;;
4674;SDS011;2351;50.812;12.872;2023-06-22T14:39:29;13.30;;;7.37;;
4674;SDS011;2351;50.812;12.872;2023-06-22T14:42:03;12.80;;;7.83;;
4674;SDS011;2351;50.812;12.872;2023-06-22T14:44:35;8.80;;;7.40;;
4674;SDS011;2351;50.812;12.872;2023-06-22T14:47:09;8.93;;;7.80;;
4674;SDS011;2351;50.812;12.872;2023-06-22T14:49:41;9.60;;;7.93;;
4674;SDS011;2351;50.812;12.872;2023-06-22T14:52:13;10.90;;;7.77;;
4674;SDS011;2351;50.812;12.872;2023-06-22T14:54:45;9.40;;;8.60;;
4674;SDS011;2351;50.812;12.872;2023-06-22T14:57:18;18.30;;;8.17;;
4674;SDS011;2351;50.812;12.872;2023-06-22T14:59:50;12.70;;;7.87;;
4674;SDS011;2351;50.812;12.872;2023-06-22T15:02:22;10.40;;;7.37;;
4674;SDS011;2351;50.812;12.872;2023-06-22T15:04:54;12.10;;;7.50;;
4674;SDS011;2351;50.812;12.872;2023-06-22T15:07:25;15.43;;;8.80;;
4674;SDS011;2351;50.812;12.872;2023-06-22T15:09:57;15.47;;;7.90;;
4674;SDS011;2351;50.812;12.872;2023-06-22T15:12:30;13.80;;;8.67;;
4674;SDS011;2351;50.812;12.872;2023-06-22T15:15:02;8.37;;;7.53;;
4674;SDS011;2351;50.812;12.872;2023-06-22T15:17:34;11.67;;;8.33;;
4674;SDS011;2351;50.812;12.872;2023-06-22T15:20:06;12.03;;;8.10;;
4674;SDS011;2351;50.812;12.872;2023-06-22T15:22:38;11.93;;;9.03;;
4674;SDS011;2351;50.812;12.872;2023-06-22T15:25:10;9.17;;;7.70;;
4674;SDS011;2351;50.812;12.872;2023-06-22T15:27:43;9.20;;;7.77;;
4674;SDS011;2351;50.812;12.872;2023-06-22T15:30:15;12.83;;;7.70;;
4674;SDS011;2351;50.812;12.872;2023-06-22T15:32:46;12.03;;;8.10;;
4674;SDS011;2351;50.812;12.872;2023-06-22T15:35:19;13.63;;;8.70;;
4674;SDS011;2351;50.812;12.872;2023-06-22T15:37:51;12.33;;;7.67;;
4674;SDS011;2351;50.812;12.872;2023-06-22T15:40:22;13.03;;;7.70;;
4674;SDS011;2351;50.812;12.872;2023-06-22T15:42:56;8.93;;;8.03;;
4674;SDS011;2351;50.812;12.872;2023-06-22T15:45:28;12.07;;;7.70;;
4674;SDS011;2351;50.812;12.872;2023-06-22T15:48:05;10.70;;;8.37;;
4674;SDS011;2351;50.812;12.872;2023-06-22T15:50:37;17.10;;;8.13;;
4674;SDS011;2351;50.812;12.872;2023-06-22T15:53:09;8.57;;;7.67;;
4674;SDS011;2351;50.812;12.872;2023-06-22T15:55:40;10.20;;;6.90;;
4674;SDS011;2351;50.812;12.872;2023-06-22T15:58:14;10.27;;;7.90;;
4674;SDS011;2351;50.812;12.872;2023-06-22T16:00:47;12.67;;;7.70;;
4674;SDS011;2351;50.812;12.872;2023-06-22T16:03:18;8.70;;;7.50;;
4674;SDS011;2351;50.812;12.872;2023-06-22T16:05:50;11.20;;;8.60;;
4674;SDS011;2351;50.812;12.872;2023-06-22T16:08:22;11.93;;;9.40;;
4674;SDS011;2351;50.812;12.872;2023-06-22T16:10:55;13.27;;;8.30;;
4674;SDS011;2351;50.812;12.872;2023-06-22T16:13:28;10.73;;;7.33;;
4674;SDS011;2351;50.812;12.872;2023-06-22T16:16:00;9.57;;;7.90;;
4674;SDS011;2351;50.812;12.872;2023-06-22T16:18:31;12.43;;;7.63;;
4674;SDS011;2351;50.812;12.872;2023-06-22T16:21:03;9.97;;;8.10;;
4674;SDS011;2351;50.812;12.872;2023-06-22T16:23:35;9.53;;;7.93;;
4674;SDS011;2351;50.812;12.872;2023-06-22T16:26:07;10.00;;;8.13;;
4674;SDS011;2351;50.812;12.872;2023-06-22T16:28:40;13.13;;;8.47;;